sensor_id;sensor_type;location;lat;lon;timestamp;P1;durP1;ratioP1;P2;durP2;ratioP2
59314;SDS011;46521;50.160;20.802;2023-05-15T00:08:18;9.18;;;5.00;;
59314;SDS011;46521;50.160;20.802;2023-05-15T00:18:19;10.25;;;5.20;;
59314;SDS011;46521;50.160;20.802;2023-05-15T00:28:21;9.83;;;5.40;;
59314;SDS011;46521;50.160;20.802;2023-05-15T00:38:22;9.08;;;5.33;;
59314;SDS011;46521;50.160;20.802;2023-05-15T00:48:24;8.65;;;5.20;;
59314;SDS011;46521;50.160;20.802;2023-05-15T00:58:27;9.40;;;5.00;;
59314;SDS011;46521;50.160;20.802;2023-05-15T01:08:46;9.48;;;4.90;;
59314;SDS011;46521;50.160;20.802;2023-05-15T01:18:49;8.00;;;4.70;;
59314;SDS011;46521;50.160;20.802;2023-05-15T01:28:53;7.73;;;3.97;;
59314;SDS011;46521;50.160;20.802;2023-05-15T01:39:01;6.78;;;3.80;;
59314;SDS011;46521;50.160;20.802;2023-05-15T01:49:04;8.00;;;4.13;;
59314;SDS011;46521;50.160;20.802;2023-05-15T01:59:10;8.80;;;4.60;;
59314;SDS011;46521;50.160;20.802;2023-05-15T02:09:14;8.75;;;4.50;;
59314;SDS011;46521;50.160;20.802;2023-05-15T02:19:16;8.85;;;3.80;;
59314;SDS011;46521;50.160;20.802;2023-05-15T02:29:18;7.73;;;4.43;;
59314;SDS011;46521;50.160;20.802;2023-05-15T02:39:34;7.70;;;4.30;;
59314;SDS011;46521;50.160;20.802;2023-05-15T02:49:35;8.03;;;4.10;;
59314;SDS011;46521;50.160;20.802;2023-05-15T02:59:39;7.40;;;4.15;;
59314;SDS011;46521;50.160;20.802;2023-05-15T03:09:41;8.00;;;4.30;;
59314;SDS011;46521;50.160;20.802;2023-05-15T03:19:42;8.53;;;4.30;;
59314;SDS011;46521;50.160;20.802;2023-05-15T03:29:44;9.00;;;4.78;;
59314;SDS011;46521;50.160;20.802;2023-05-15T03:39:45;8.10;;;4.63;;
59314;SDS011;46521;50.160;20.802;2023-05-15T03:49:47;8.70;;;4.40;;
59314;SDS011;46521;50.160;20.802;2023-05-15T03:59:48;7.70;;;5.00;;
59314;SDS011;46521;50.160;20.802;2023-05-15T04:09:50;8.00;;;4.48;;
59314;SDS011;46521;50.160;20.802;2023-05-15T04:19:51;8.60;;;4.75;;
59314;SDS011;46521;50.160;20.802;2023-05-15T04:29:53;8.87;;;5.30;;
59314;SDS011;46521;50.160;20.802;2023-05-15T04:39:54;9.47;;;5.03;;
59314;SDS011;46521;50.160;20.802;2023-05-15T04:49:56;9.60;;;5.60;;
59314;SDS011;46521;50.160;20.802;2023-05-15T04:59:57;7.93;;;4.78;;
59314;SDS011;46521;50.160;20.802;2023-05-15T05:09:59;9.77;;;5.23;;
59314;SDS011;46521;50.160;20.802;2023-05-15T05:20:00;7.93;;;4.43;;
59314;SDS011;46521;50.160;20.802;2023-05-15T05:30:02;8.77;;;4.33;;
59314;SDS011;46521;50.160;20.802;2023-05-15T05:40:03;7.33;;;4.48;;
59314;SDS011;46521;50.160;20.802;2023-05-15T05:50:06;7.90;;;4.60;;
59314;SDS011;46521;50.160;20.802;2023-05-15T06:00:08;9.40;;;5.20;;
59314;SDS011;46521;50.160;20.802;2023-05-15T06:10:10;8.53;;;5.43;;
59314;SDS011;46521;50.160;20.802;2023-05-15T06:20:13;10.00;;;5.30;;
59314;SDS011;46521;50.160;20.802;2023-05-15T06:30:15;9.23;;;5.33;;
59314;SDS011;46521;50.160;20.802;2023-05-15T06:40:17;8.77;;;5.37;;
59314;SDS011;46521;50.160;20.802;2023-05-15T06:50:19;9.25;;;6.30;;
59314;SDS011;46521;50.160;20.802;2023-05-15T07:00:20;9.25;;;5.25;;
59314;SDS011;46521;50.160;20.802;2023-05-15T07:10:22;9.33;;;5.08;;
59314;SDS011;46521;50.160;20.802;2023-05-15T07:20:23;8.45;;;5.05;;
59314;SDS011;46521;50.160;20.802;2023-05-15T07:30:25;8.78;;;5.00;;
59314;SDS011;46521;50.160;20.802;2023-05-15T07:40:26;9.70;;;5.40;;
59314;SDS011;46521;50.160;20.802;2023-05-15T07:50:28;10.17;;;4.80;;
59314;SDS011;46521;50.160;20.802;2023-05-15T08:00:30;8.00;;;4.95;;
59314;SDS011;46521;50.160;20.802;2023-05-15T08:10:31;8.15;;;4.43;;
59314;SDS011;46521;50.160;20.802;2023-05-15T08:20:33;7.30;;;4.07;;
59314;SDS011;46521;50.160;20.802;2023-05-15T08:30:34;6.93;;;4.00;;
59314;SDS011;46521;50.160;20.802;2023-05-15T08:40:36;6.18;;;3.50;;
59314;SDS011;46521;50.160;20.802;2023-05-15T08:50:38;7.20;;;3.40;;
59314;SDS011;46521;50.160;20.802;2023-05-15T09:00:40;6.48;;;3.10;;
59314;SDS011;46521;50.160;20.802;2023-05-15T09:10:42;6.77;;;2.80;;
59314;SDS011;46521;50.160;20.802;2023-05-15T09:20:43;5.85;;;2.90;;
59314;SDS011;46521;50.160;20.802;2023-05-15T09:30:45;5.83;;;2.53;;
59314;SDS011;46521;50.160;20.802;2023-05-15T09:40:46;4.67;;;2.03;;
59314;SDS011;46521;50.160;20.802;2023-05-15T09:50:48;5.38;;;1.73;;
59314;SDS011;46521;50.160;20.802;2023-05-15T10:00:49;3.37;;;1.40;;
59314;SDS011;46521;50.160;20.802;2023-05-15T10:10:51;3.35;;;1.48;;
59314;SDS011;46521;50.160;20.802;2023-05-15T10:20:54;5.13;;;1.60;;
59314;SDS011;46521;50.160;20.802;2023-05-15T10:30:59;2.80;;;1.30;;
59314;SDS011;46521;50.160;20.802;2023-05-15T10:41:01;4.10;;;1.20;;
59314;SDS011;46521;50.160;20.802;2023-05-15T10:51:12;3.10;;;1.40;;
59314;SDS011;46521;50.160;20.802;2023-05-15T11:01:28;2.27;;;1.20;;
59314;SDS011;46521;50.160;20.802;2023-05-15T11:32:30;2.90;;;1.30;;
59314;SDS011;46521;50.160;20.802;2023-05-15T11:42:42;2.60;;;1.33;;
59314;SDS011;46521;50.160;20.802;2023-05-15T11:53:02;4.33;;;1.80;;
59314;SDS011;46521;50.160;20.802;2023-05-15T12:03:05;5.73;;;1.80;;
59314;SDS011;46521;50.160;20.802;2023-05-15T12:13:11;4.77;;;1.87;;
59314;SDS011;46521;50.160;20.802;2023-05-15T12:23:15;6.00;;;2.10;;
59314;SDS011;46521;50.160;20.802;2023-05-15T12:33:17;4.60;;;1.90;;
59314;SDS011;46521;50.160;20.802;2023-05-15T12:43:19;5.30;;;2.23;;
59314;SDS011;46521;50.160;20.802;2023-05-15T12:53:24;5.53;;;2.20;;
59314;SDS011;46521;50.160;20.802;2023-05-15T13:03:26;4.78;;;2.05;;
59314;SDS011;46521;50.160;20.802;2023-05-15T13:13:42;6.03;;;2.97;;
59314;SDS011;46521;50.160;20.802;2023-05-15T13:23:44;6.13;;;2.43;;
59314;SDS011;46521;50.160;20.802;2023-05-15T13:33:46;5.78;;;2.35;;
59314;SDS011;46521;50.160;20.802;2023-05-15T13:43:48;3.85;;;2.00;;
59314;SDS011;46521;50.160;20.802;2023-05-15T13:53:51;5.00;;;2.10;;
59314;SDS011;46521;50.160;20.802;2023-05-15T14:03:52;5.97;;;2.10;;
59314;SDS011;46521;50.160;20.802;2023-05-15T14:13:54;5.40;;;2.10;;
59314;SDS011;46521;50.160;20.802;2023-05-15T14:23:55;6.43;;;2.43;;
59314;SDS011;46521;50.160;20.802;2023-05-15T14:33:57;6.15;;;2.60;;
59314;SDS011;46521;50.160;20.802;2023-05-15T14:43:59;6.10;;;2.80;;
59314;SDS011;46521;50.160;20.802;2023-05-15T14:54:00;6.60;;;2.93;;
59314;SDS011;46521;50.160;20.802;2023-05-15T15:04:02;5.53;;;3.03;;
59314;SDS011;46521;50.160;20.802;2023-05-15T15:14:04;5.77;;;3.07;;
59314;SDS011;46521;50.160;20.802;2023-05-15T15:24:05;7.67;;;3.23;;
59314;SDS011;46521;50.160;20.802;2023-05-15T15:34:07;5.93;;;2.63;;
59314;SDS011;46521;50.160;20.802;2023-05-15T15:44:10;6.20;;;2.90;;
59314;SDS011;46521;50.160;20.802;2023-05-15T15:54:11;6.50;;;3.20;;
59314;SDS011;46521;50.160;20.802;2023-05-15T16:04:12;6.20;;;3.53;;
59314;SDS011;46521;50.160;20.802;2023-05-15T16:14:14;7.08;;;3.75;;
59314;SDS011;46521;50.160;20.802;2023-05-15T16:24:15;6.48;;;3.70;;
59314;SDS011;46521;50.160;20.802;2023-05-15T16:34:17;7.10;;;3.80;;
59314;SDS011;46521;50.160;20.802;2023-05-15T16:44:18;6.60;;;3.55;;
59314;SDS011;46521;50.160;20.802;2023-05-15T16:54:20;7.40;;;3.63;;
59314;SDS011;46521;50.160;20.802;2023-05-15T17:04:21;7.67;;;4.10;;
59314;SDS011;46521;50.160;20.802;2023-05-15T17:14:23;7.60;;;3.90;;
59314;SDS011;46521;50.160;20.802;2023-05-15T17:24:25;8.77;;;4.37;;
59314;SDS011;46521;50.160;20.802;2023-05-15T17:34:26;8.00;;;4.53;;
59314;SDS011;46521;50.160;20.802;2023-05-15T17:44:28;7.55;;;3.85;;
59314;SDS011;46521;50.160;20.802;2023-05-15T17:54:30;11.53;;;5.63;;
59314;SDS011;46521;50.160;20.802;2023-05-15T18:04:32;8.08;;;4.73;;
59314;SDS011;46521;50.160;20.802;2023-05-15T18:14:33;9.00;;;5.45;;
59314;SDS011;46521;50.160;20.802;2023-05-15T18:24:36;11.90;;;6.20;;
59314;SDS011;46521;50.160;20.802;2023-05-15T18:34:37;9.40;;;4.97;;
59314;SDS011;46521;50.160;20.802;2023-05-15T18:44:39;9.87;;;7.00;;
59314;SDS011;46521;50.160;20.802;2023-05-15T18:54:41;12.45;;;7.85;;
59314;SDS011;46521;50.160;20.802;2023-05-15T19:04:42;16.50;;;9.60;;
59314;SDS011;46521;50.160;20.802;2023-05-15T19:14:44;12.80;;;8.35;;
59314;SDS011;46521;50.160;20.802;2023-05-15T19:24:45;12.18;;;7.83;;
59314;SDS011;46521;50.160;20.802;2023-05-15T19:34:47;13.07;;;8.40;;
59314;SDS011;46521;50.160;20.802;2023-05-15T19:44:48;12.60;;;8.80;;
59314;SDS011;46521;50.160;20.802;2023-05-15T19:54:50;15.85;;;10.25;;
59314;SDS011;46521;50.160;20.802;2023-05-15T20:04:51;10.25;;;6.50;;
59314;SDS011;46521;50.160;20.802;2023-05-15T20:14:53;10.05;;;5.90;;
59314;SDS011;46521;50.160;20.802;2023-05-15T20:24:54;9.30;;;4.93;;
59314;SDS011;46521;50.160;20.802;2023-05-15T20:34:56;8.13;;;4.47;;
59314;SDS011;46521;50.160;20.802;2023-05-15T20:44:57;7.25;;;3.90;;
59314;SDS011;46521;50.160;20.802;2023-05-15T20:54:59;7.20;;;4.20;;
59314;SDS011;46521;50.160;20.802;2023-05-15T21:05:04;7.45;;;4.35;;
59314;SDS011;46521;50.160;20.802;2023-05-15T21:15:06;7.30;;;3.48;;
59314;SDS011;46521;50.160;20.802;2023-05-15T21:25:08;6.53;;;3.63;;
59314;SDS011;46521;50.160;20.802;2023-05-15T21:35:10;6.70;;;2.95;;
59314;SDS011;46521;50.160;20.802;2023-05-15T21:45:12;7.87;;;3.20;;
59314;SDS011;46521;50.160;20.802;2023-05-15T21:55:13;7.55;;;3.63;;
59314;SDS011;46521;50.160;20.802;2023-05-15T22:05:15;7.50;;;3.80;;
59314;SDS011;46521;50.160;20.802;2023-05-15T22:15:17;7.43;;;3.83;;
59314;SDS011;46521;50.160;20.802;2023-05-15T22:25:19;8.43;;;4.40;;
59314;SDS011;46521;50.160;20.802;2023-05-15T22:35:21;8.28;;;4.00;;
59314;SDS011;46521;50.160;20.802;2023-05-15T22:45:22;7.30;;;4.20;;
59314;SDS011;46521;50.160;20.802;2023-05-15T22:55:24;8.70;;;4.10;;
59314;SDS011;46521;50.160;20.802;2023-05-15T23:05:25;7.38;;;4.20;;
59314;SDS011;46521;50.160;20.802;2023-05-15T23:15:27;7.05;;;3.08;;
59314;SDS011;46521;50.160;20.802;2023-05-15T23:25:29;6.75;;;3.00;;
59314;SDS011;46521;50.160;20.802;2023-05-15T23:35:31;6.95;;;2.98;;
59314;SDS011;46521;50.160;20.802;2023-05-15T23:45:33;8.00;;;3.40;;
